Time;durP1;ratioP1;P1;durP2;ratioP2;P2;SDS_P1;SDS_P2;PMS_P1;PMS_P2;Temp;Humidity;BMP_temperature;BMP_pressure;BME280_temperature;BME280_humidity;BME280_pressure;Samples;Min_cycle;Max_cycle;Signal;HPM_P1;HPM_P2
2022/01/12 00:00:56;;;;;;;10.35;7.10;;;1.20;34.10;;;;;;5116434;28;20035;-76
2022/01/12 00:03:23;;;;;;;12.73;7.70;;;1.10;37.10;;;;;;5116141;28;20069;-76
2022/01/12 00:05:49;;;;;;;12.20;7.53;;;1.00;44.20;;;;;;5116561;28;20092;-76
2022/01/12 00:08:15;;;;;;;13.77;9.30;;;1.00;50.80;;;;;;5116610;28;20494;-75
2022/01/12 00:10:43;;;;;;;18.10;11.95;;;0.90;58.00;;;;;;5116841;28;20081;-76
2022/01/12 00:13:09;;;;;;;16.80;10.95;;;0.90;56.40;;;;;;5116513;28;20023;-75
2022/01/12 00:15:35;;;;;;;15.68;10.52;;;0.70;61.20;;;;;;5116786;28;20025;-76
2022/01/12 00:18:00;;;;;;;16.42;10.52;;;0.80;62.40;;;;;;5116153;28;20035;-76
2022/01/12 00:20:26;;;;;;;13.05;8.85;;;0.80;60.80;;;;;;5116985;28;20095;-75
2022/01/12 00:22:53;;;;;;;10.50;6.45;;;0.90;55.30;;;;;;5116620;28;20481;-76
2022/01/12 00:33:15;;;;;;;8.35;5.57;;;1.40;21.70;;;;;;5116007;28;20054;-76
2022/01/12 00:35:43;;;;;;;9.57;5.75;;;1.60;7.90;;;;;;5116359;28;20038;-76
2022/01/12 00:38:11;;;;;;;8.10;5.93;;;1.70;10.30;;;;;;5115938;28;20470;-76
2022/01/12 00:40:42;;;;;;;8.60;7.47;;;1.70;2.30;;;;;;5116615;28;20112;-76
2022/01/12 00:43:09;;;;;;;8.15;5.93;;;1.90;1.00;;;;;;5115772;28;20031;-76
2022/01/12 00:45:38;;;;;;;9.40;6.38;;;1.90;1.00;;;;;;5115882;28;20035;-76
2022/01/12 00:48:05;;;;;;;8.25;6.53;;;2.00;1.00;;;;;;5116132;28;20023;-76
2022/01/12 00:50:31;;;;;;;9.68;5.82;;;2.00;1.00;;;;;;5116704;28;20039;-75
2022/01/12 00:52:57;;;;;;;6.40;4.78;;;1.90;1.00;;;;;;5116054;28;20031;-76
2022/01/12 00:55:23;;;;;;;5.90;4.60;;;1.90;1.00;;;;;;5115989;28;20081;-76
2022/01/12 00:57:50;;;;;;;5.45;4.68;;;1.70;1.00;;;;;;5115962;28;20441;-75
2022/01/12 01:00:16;;;;;;;7.10;4.47;;;1.70;1.00;;;;;;5115455;28;20618;-76
2022/01/12 01:02:42;;;;;;;6.05;4.60;;;1.70;1.00;;;;;;5115538;28;20077;-75
2022/01/12 01:05:08;;;;;;;6.22;4.43;;;1.70;1.00;;;;;;5115558;28;20035;-75
2022/01/12 01:07:34;;;;;;;8.27;4.80;;;1.60;1.00;;;;;;5115833;28;20067;-75
2022/01/12 01:10:10;;;;;;;7.03;4.72;;;1.50;1.00;;;;;;5116112;28;20070;-76
2022/01/12 01:12:36;;;;;;;5.93;5.20;;;1.30;1.00;;;;;;5115348;28;20064;-76
2022/01/12 01:15:09;;;;;;;9.73;5.50;;;1.50;2.10;;;;;;5115095;28;20135;-75
2022/01/12 01:25:51;;;;;;;9.52;5.65;;;1.10;1.10;;;;;;5115028;28;20038;-76
2022/01/12 01:28:18;;;;;;;7.30;5.45;;;1.20;6.80;;;;;;5115243;28;20039;-75
2022/01/12 01:30:45;;;;;;;6.80;5.15;;;1.10;1.00;;;;;;5115187;28;20565;-75
2022/01/12 01:33:15;;;;;;;9.52;5.13;;;1.00;1.00;;;;;;5114760;28;20081;-75
2022/01/12 01:35:46;;;;;;;7.33;5.07;;;0.80;3.60;;;;;;5115120;28;20063;-76
2022/01/12 01:38:12;;;;;;;7.07;5.10;;;0.70;15.90;;;;;;5114987;28;20532;-76
2022/01/12 01:40:42;;;;;;;6.45;4.18;;;0.70;10.90;;;;;;5115171;28;20044;-76
2022/01/12 01:54:20;;;;;;;6.95;4.70;;;0.80;11.10;;;;;;5114751;28;20554;-76
2022/01/12 01:56:46;;;;;;;6.10;4.82;;;0.80;5.00;;;;;;5114897;28;20110;-76
2022/01/12 01:59:12;;;;;;;7.60;5.03;;;0.70;8.50;;;;;;5115441;28;20044;-76
2022/01/12 02:01:38;;;;;;;5.85;4.90;;;0.70;15.70;;;;;;5115038;28;20520;-76
2022/01/12 02:04:05;;;;;;;6.30;5.03;;;0.60;16.40;;;;;;5114399;28;20038;-75
2022/01/12 02:06:31;;;;;;;7.90;4.90;;;0.60;18.90;;;;;;5114895;28;20486;-75
2022/01/12 02:08:57;;;;;;;6.05;5.10;;;0.60;9.80;;;;;;5115379;28;20035;-75
2022/01/12 02:11:27;;;;;;;6.15;4.55;;;0.70;8.60;;;;;;5118772;28;20482;-76
2022/01/12 02:13:53;;;;;;;7.97;4.93;;;0.80;9.60;;;;;;5118865;28;20031;-75
2022/01/12 02:16:25;;;;;;;7.15;5.32;;;0.60;12.50;;;;;;5118693;28;20238;-76
2022/01/12 02:19:20;;;;;;;7.38;5.18;;;0.90;1.00;;;;;;5118197;28;20051;-76
2022/01/12 02:35:46;;;;;;;7.72;5.93;;;1.80;1.00;;;;;;5118261;28;20558;-76
2022/01/12 02:40:56;;;;;;;7.85;5.47;;;1.80;1.00;;;;;;5118062;28;20039;-76
2022/01/12 02:54:15;;;;;;;7.60;5.55;;;1.40;1.00;;;;;;5117895;28;20030;-75
2022/01/12 02:56:41;;;;;;;7.97;5.30;;;1.60;1.00;;;;;;5118387;28;20408;-75
2022/01/12 02:59:09;;;;;;;8.82;4.93;;;1.50;1.00;;;;;;5118030;28;20087;-76
2022/01/12 03:04:21;;;;;;;7.45;5.22;;;1.40;1.00;;;;;;5085606;28;20339;-75
2022/01/12 03:06:47;;;;;;;9.07;5.60;;;1.60;1.00;;;;;;5117449;28;20072;-76
2022/01/12 03:09:13;;;;;;;9.07;5.40;;;1.60;1.00;;;;;;5118159;28;20039;-75
2022/01/12 03:11:39;;;;;;;7.65;5.80;;;1.60;1.00;;;;;;5117640;28;20039;-76
2022/01/12 03:14:05;;;;;;;12.13;6.40;;;1.70;1.00;;;;;;5117768;28;20035;-76
2022/01/12 03:16:32;;;;;;;8.82;5.78;;;1.50;1.00;;;;;;5117872;28;20043;-75
2022/01/12 03:18:59;;;;;;;6.85;4.78;;;1.40;1.00;;;;;;5117905;28;20039;-75
2022/01/12 03:21:29;;;;;;;7.78;5.22;;;1.50;1.00;;;;;;5116371;28;20518;-76
2022/01/12 03:23:55;;;;;;;6.80;4.85;;;1.50;1.00;;;;;;5117812;28;20031;-76
2022/01/12 03:26:23;;;;;;;6.45;5.18;;;1.40;1.00;;;;;;5118156;28;20039;-75
2022/01/12 03:28:53;;;;;;;8.45;4.93;;;1.20;1.00;;;;;;5118040;28;20038;-75
2022/01/12 03:31:24;;;;;;;6.53;4.90;;;1.00;1.00;;;;;;5118228;28;20066;-75
2022/01/12 03:38:53;;;;;;;6.80;4.80;;;1.00;1.00;;;;;;5117253;28;20374;-76
2022/01/12 03:41:20;;;;;;;8.25;4.88;;;0.80;1.00;;;;;;5117385;28;20034;-75
2022/01/12 03:43:46;;;;;;;6.13;5.10;;;0.80;1.00;;;;;;5117359;28;20504;-76
2022/01/12 03:46:13;;;;;;;8.45;5.22;;;0.60;1.00;;;;;;5117589;28;20039;-75
2022/01/12 03:48:39;;;;;;;10.43;4.93;;;0.60;1.00;;;;;;5117119;28;20126;-76
2022/01/12 03:51:05;;;;;;;7.38;5.30;;;0.70;1.00;;;;;;5117276;28;20062;-76
2022/01/12 03:53:31;;;;;;;8.05;5.22;;;0.70;1.00;;;;;;5116990;28;20032;-76
2022/01/12 03:55:56;;;;;;;9.05;5.25;;;0.60;1.00;;;;;;5116899;28;20031;-76
2022/01/12 03:58:22;;;;;;;6.10;4.78;;;0.60;1.00;;;;;;5117069;28;20462;-76
2022/01/12 04:00:48;;;;;;;7.65;5.07;;;0.40;1.00;;;;;;5117445;28;20039;-75
2022/01/12 04:03:15;;;;;;;6.95;5.40;;;0.30;6.70;;;;;;5117087;28;20042;-76
2022/01/12 04:08:25;;;;;;;7.28;4.57;;;0.20;1.00;;;;;;5116461;28;20517;-76
2022/01/12 04:11:00;;;;;;;8.32;5.30;;;0.20;9.40;;;;;;5116619;28;20104;-75
2022/01/12 04:13:28;;;;;;;8.77;5.80;;;0.20;5.90;;;;;;5116822;28;20031;-76
2022/01/12 04:16:01;;;;;;;7.50;5.55;;;0.20;11.90;;;;;;5116108;28;20087;-76
2022/01/12 04:18:27;;;;;;;6.82;4.90;;;0.20;11.70;;;;;;5116016;28;20043;-76
2022/01/12 04:20:53;;;;;;;6.63;4.45;;;0.30;5.50;;;;;;5116407;28;20043;-76
2022/01/12 04:23:22;;;;;;;9.43;5.35;;;0.40;1.00;;;;;;5116051;28;20383;-76
2022/01/12 04:25:59;;;;;;;7.03;4.85;;;0.40;1.00;;;;;;5116003;28;20160;-75
2022/01/12 04:28:27;;;;;;;5.90;4.60;;;0.40;1.00;;;;;;5116351;28;20039;-76
2022/01/12 04:30:55;;;;;;;8.50;5.03;;;0.30;1.00;;;;;;5116214;28;20112;-76
2022/01/12 04:33:22;;;;;;;8.75;5.30;;;0.30;1.00;;;;;;5116099;28;20040;-75
2022/01/12 04:35:53;;;;;;;8.65;5.38;;;0.20;2.00;;;;;;5116631;28;20023;-75
2022/01/12 04:38:21;;;;;;;9.27;5.43;;;0.00;5.10;;;;;;5115657;28;20100;-75
2022/01/12 04:40:48;;;;;;;7.57;5.30;;;0.00;9.40;;;;;;5115729;28;20035;-76
2022/01/12 04:43:14;;;;;;;7.88;5.43;;;0.00;3.70;;;;;;5116169;28;20035;-76
2022/01/12 04:50:48;;;;;;;9.20;5.50;;;0.40;1.00;;;;;;5115567;28;20027;-76
2022/01/12 04:53:15;;;;;;;8.48;5.25;;;0.20;1.00;;;;;;5115499;28;20084;-75
2022/01/12 04:55:42;;;;;;;8.25;5.43;;;0.10;9.60;;;;;;5115649;28;20035;-75
2022/01/12 04:58:09;;;;;;;6.38;4.90;;;0.00;12.10;;;;;;5115347;28;20089;-76
2022/01/12 05:00:37;;;;;;;8.15;5.43;;;0.10;16.70;;;;;;5115967;28;20053;-76
2022/01/12 05:13:47;;;;;;;7.68;5.40;;;0.80;1.00;;;;;;5115486;28;20111;-75
2022/01/12 05:16:13;;;;;;;8.73;5.57;;;0.70;1.00;;;;;;5115889;28;20091;-75
2022/01/12 05:18:41;;;;;;;8.15;5.53;;;0.90;1.00;;;;;;5115638;28;20041;-75
2022/01/12 05:21:08;;;;;;;8.55;5.55;;;1.20;1.00;;;;;;5116108;28;20074;-75
2022/01/12 05:23:35;;;;;;;7.65;5.38;;;1.10;1.00;;;;;;5115721;28;20036;-75
2022/01/12 05:26:01;;;;;;;6.93;5.50;;;1.00;1.00;;;;;;5115265;28;20100;-74
2022/01/12 05:28:28;;;;;;;7.70;6.07;;;1.00;1.00;;;;;;5115239;28;20096;-74
2022/01/12 05:30:55;;;;;;;9.68;5.88;;;1.00;1.00;;;;;;5115477;28;20063;-73
2022/01/12 05:33:23;;;;;;;7.75;6.03;;;1.00;1.00;;;;;;5115354;28;20035;-75
2022/01/12 05:35:50;;;;;;;7.65;6.15;;;0.90;1.00;;;;;;5114990;28;20101;-74
2022/01/12 05:38:16;;;;;;;9.60;7.28;;;1.00;1.00;;;;;;5114757;28;20035;-74
2022/01/12 05:40:46;;;;;;;9.93;6.55;;;0.80;1.00;;;;;;5113548;28;20047;-74
2022/01/12 05:43:23;;;;;;;9.50;6.00;;;0.90;1.00;;;;;;5114270;28;20036;-74
2022/01/12 05:45:51;;;;;;;7.68;5.57;;;0.70;1.00;;;;;;5114856;28;20111;-74
2022/01/12 05:50:46;;;;;;;9.95;6.38;;;0.70;1.00;;;;;;5114979;28;20114;-74
2022/01/12 05:53:14;;;;;;;8.98;5.75;;;0.60;1.00;;;;;;5114852;28;20486;-74
2022/01/12 05:55:39;;;;;;;8.57;5.88;;;0.70;1.00;;;;;;5114917;28;20040;-74
2022/01/12 05:58:05;;;;;;;9.15;5.93;;;0.70;1.00;;;;;;5115116;28;20037;-74
2022/01/12 06:00:31;;;;;;;7.75;5.78;;;0.80;1.00;;;;;;5115809;28;20044;-74
2022/01/12 06:02:57;;;;;;;8.00;6.05;;;0.80;1.00;;;;;;5115021;28;20089;-74
2022/01/12 06:05:23;;;;;;;8.90;6.10;;;0.80;1.00;;;;;;5114841;28;20031;-74
2022/01/12 06:07:51;;;;;;;9.20;5.90;;;0.80;1.00;;;;;;5114810;28;20374;-74
2022/01/12 06:10:21;;;;;;;7.60;5.68;;;0.80;1.00;;;;;;5115174;28;20038;-74
2022/01/12 06:12:47;;;;;;;8.48;5.30;;;0.80;1.00;;;;;;5114349;28;20136;-74
2022/01/12 06:15:13;;;;;;;6.47;5.32;;;0.90;1.00;;;;;;5114718;28;20042;-74
2022/01/12 06:17:38;;;;;;;6.63;5.13;;;0.80;1.00;;;;;;5114725;28;20118;-74
2022/01/12 06:20:05;;;;;;;8.27;5.28;;;0.80;1.00;;;;;;5114530;28;20435;-74
2022/01/12 06:22:32;;;;;;;12.35;5.15;;;0.80;1.00;;;;;;5114436;28;20475;-74
2022/01/12 06:25:00;;;;;;;7.13;5.25;;;0.80;1.00;;;;;;5114348;28;20028;-74
2022/01/12 06:27:31;;;;;;;12.02;10.82;;;0.70;1.00;;;;;;5114695;28;20031;-74
2022/01/12 06:32:49;;;;;;;7.60;5.30;;;0.50;1.00;;;;;;5089908;28;20486;-74
2022/01/12 06:35:15;;;;;;;7.10;4.90;;;0.40;1.00;;;;;;5114554;28;20065;-74
2022/01/12 06:37:41;;;;;;;7.03;5.13;;;0.40;1.00;;;;;;5114248;28;20031;-74
2022/01/12 06:40:07;;;;;;;6.82;5.20;;;0.50;1.00;;;;;;5115050;28;20478;-74
2022/01/12 06:42:33;;;;;;;8.75;5.45;;;0.50;1.00;;;;;;5114517;28;20031;-74
2022/01/12 06:44:59;;;;;;;6.97;5.50;;;0.60;1.00;;;;;;5114216;28;20035;-74
2022/01/12 06:47:25;;;;;;;7.03;5.10;;;0.60;1.00;;;;;;5114175;28;20063;-74
2022/01/12 06:49:51;;;;;;;7.28;5.03;;;0.60;1.00;;;;;;5114390;28;20043;-74
2022/01/12 06:52:16;;;;;;;12.00;5.43;;;0.50;1.00;;;;;;5114496;28;20081;-74
2022/01/12 06:54:42;;;;;;;7.22;5.50;;;0.50;1.00;;;;;;5114886;28;20040;-74
2022/01/12 06:57:08;;;;;;;7.05;5.40;;;0.60;1.00;;;;;;5118077;28;20058;-74
2022/01/12 06:59:34;;;;;;;10.80;6.57;;;0.80;1.00;;;;;;5118304;28;20042;-74
2022/01/12 07:02:00;;;;;;;9.48;6.25;;;0.90;1.00;;;;;;5117981;28;20035;-74
2022/01/12 07:04:25;;;;;;;9.75;6.40;;;0.90;1.00;;;;;;5117767;28;20035;-74
2022/01/12 07:06:51;;;;;;;8.43;6.00;;;0.90;1.00;;;;;;5117568;28;20066;-74
2022/01/12 07:09:17;;;;;;;9.10;7.00;;;0.90;1.00;;;;;;5118205;28;20031;-74
2022/01/12 07:11:43;;;;;;;10.32;6.88;;;1.00;1.00;;;;;;5117934;28;20097;-74
2022/01/12 07:14:09;;;;;;;11.60;7.30;;;0.90;1.00;;;;;;5117928;28;20079;-74
2022/01/12 07:16:35;;;;;;;9.88;6.72;;;1.00;1.00;;;;;;5117695;28;20035;-74
2022/01/12 07:19:00;;;;;;;8.20;6.45;;;1.00;1.00;;;;;;5118122;28;20032;-74
2022/01/12 07:21:27;;;;;;;11.52;8.05;;;1.00;1.00;;;;;;5117554;28;20126;-74
2022/01/12 07:23:57;;;;;;;10.10;7.72;;;1.00;1.00;;;;;;5117569;28;20478;-74
2022/01/12 07:26:25;;;;;;;12.48;8.48;;;0.90;1.00;;;;;;5117454;28;20084;-74
2022/01/12 07:28:53;;;;;;;12.02;8.38;;;0.90;1.00;;;;;;5117761;28;20513;-74
2022/01/12 07:31:19;;;;;;;12.10;8.57;;;0.90;1.00;;;;;;5117307;28;20038;-74
2022/01/12 07:33:45;;;;;;;13.77;8.68;;;0.90;1.00;;;;;;5117628;28;20031;-74
2022/01/12 07:36:11;;;;;;;11.60;7.72;;;0.80;1.00;;;;;;5117288;28;20147;-74
2022/01/12 07:38:37;;;;;;;12.18;8.65;;;0.70;1.00;;;;;;5117429;28;20108;-74
2022/01/12 07:41:03;;;;;;;12.55;8.45;;;0.70;1.00;;;;;;5117219;28;20440;-74
2022/01/12 07:43:28;;;;;;;11.82;6.78;;;0.60;1.00;;;;;;5117106;28;20024;-74
2022/01/12 07:45:54;;;;;;;9.75;7.25;;;0.50;1.00;;;;;;5118010;27;20063;-75
2022/01/12 07:48:20;;;;;;;11.85;7.78;;;0.40;1.00;;;;;;5117278;28;20040;-74
2022/01/12 07:50:46;;;;;;;11.65;7.50;;;0.60;1.00;;;;;;5125881;27;20512;-75
2022/01/12 07:53:12;;;;;;;11.98;7.60;;;0.60;1.00;;;;;;5137876;27;20126;-74
2022/01/12 07:55:38;;;;;;;10.30;6.95;;;0.50;1.00;;;;;;5138080;27;20063;-74
2022/01/12 07:58:04;;;;;;;10.65;7.80;;;0.50;1.00;;;;;;5137783;27;20038;-74
2022/01/12 08:00:30;;;;;;;9.73;6.95;;;0.50;1.00;;;;;;5137877;27;20098;-75
2022/01/12 08:02:56;;;;;;;10.50;7.15;;;0.50;1.00;;;;;;5128739;27;20100;-74
2022/01/12 08:05:22;;;;;;;12.32;7.15;;;0.60;1.00;;;;;;5116201;28;20035;-74
2022/01/12 08:07:49;;;;;;;9.38;7.18;;;0.50;1.00;;;;;;5114598;28;20031;-74
2022/01/12 08:10:16;;;;;;;12.50;7.43;;;0.40;1.00;;;;;;5116665;28;20077;-74
2022/01/12 08:12:42;;;;;;;10.05;6.63;;;0.50;1.00;;;;;;5116015;28;20116;-74
2022/01/12 08:15:10;;;;;;;9.20;6.40;;;0.50;1.00;;;;;;5120973;27;20035;-74
2022/01/12 08:17:36;;;;;;;10.98;7.05;;;0.60;1.00;;;;;;5124050;27;20035;-74
2022/01/12 08:20:10;;;;;;;11.25;6.55;;;0.70;1.00;;;;;;5132337;27;20046;-74
2022/01/12 08:22:38;;;;;;;10.75;6.60;;;0.70;1.00;;;;;;5125815;27;20051;-74
2022/01/12 08:25:05;;;;;;;13.45;6.75;;;0.90;1.00;;;;;;5133724;27;20069;-74
2022/01/12 08:27:31;;;;;;;9.50;6.63;;;0.90;1.00;;;;;;5130425;27;20215;-74
2022/01/12 08:30:02;;;;;;;9.10;6.03;;;1.00;1.00;;;;;;5124220;27;20062;-74
2022/01/12 08:32:29;;;;;;;9.15;5.90;;;1.00;1.00;;;;;;5131028;27;20031;-75
2022/01/12 08:34:55;;;;;;;7.72;5.80;;;1.10;1.00;;;;;;5132151;27;20373;-75
2022/01/12 08:37:21;;;;;;;8.95;5.72;;;1.10;1.00;;;;;;5132150;27;20381;-75
2022/01/12 08:39:47;;;;;;;7.35;5.47;;;1.20;1.00;;;;;;5135336;27;20127;-74
2022/01/12 08:42:13;;;;;;;7.32;5.60;;;1.10;1.00;;;;;;5134662;27;20062;-75
2022/01/12 08:44:39;;;;;;;7.82;5.72;;;1.30;1.00;;;;;;5135659;27;20516;-75
2022/01/12 08:47:05;;;;;;;9.27;5.57;;;1.20;1.00;;;;;;5134093;27;20069;-74
2022/01/12 08:49:31;;;;;;;8.13;5.25;;;1.30;1.00;;;;;;5115897;28;20038;-74
2022/01/12 08:51:57;;;;;;;6.75;5.15;;;1.40;1.00;;;;;;5116092;28;20031;-74
2022/01/12 08:54:23;;;;;;;7.22;5.05;;;1.60;1.00;;;;;;5121796;27;20087;-74
2022/01/12 08:56:49;;;;;;;7.60;5.47;;;1.60;1.00;;;;;;5133669;27;20035;-74
2022/01/12 08:59:17;;;;;;;8.07;5.07;;;1.50;1.00;;;;;;5126444;27;20118;-74
2022/01/12 09:01:45;;;;;;;5.18;4.68;;;1.60;1.00;;;;;;5116206;28;20408;-74
2022/01/12 09:04:11;;;;;;;9.55;6.28;;;1.60;1.00;;;;;;5117864;27;20042;-74
2022/01/12 09:06:37;;;;;;;6.30;5.20;;;1.70;1.00;;;;;;5116668;27;20057;-74
2022/01/12 09:09:04;;;;;;;11.15;5.38;;;1.60;1.00;;;;;;5115543;28;20051;-74
2022/01/12 09:11:30;;;;;;;7.28;5.57;;;1.80;1.00;;;;;;5118137;27;20497;-74
2022/01/12 09:13:56;;;;;;;9.18;5.53;;;2.00;1.00;;;;;;5115035;28;20146;-74
2022/01/12 09:16:21;;;;;;;7.80;5.07;;;2.00;1.00;;;;;;5121018;27;20119;-74
2022/01/12 09:18:47;;;;;;;8.85;5.03;;;2.10;1.00;;;;;;5129369;27;20042;-74
2022/01/12 09:21:13;;;;;;;7.97;4.53;;;2.10;1.00;;;;;;5134709;27;20059;-74
2022/01/12 09:23:39;;;;;;;5.22;3.90;;;2.10;1.00;;;;;;5131451;27;20035;-74
2022/01/12 09:26:06;;;;;;;8.10;4.80;;;2.30;1.00;;;;;;5116460;27;20051;-74
2022/01/12 09:28:32;;;;;;;8.27;5.90;;;2.30;1.00;;;;;;5116796;28;20057;-74
2022/01/12 09:30:59;;;;;;;7.25;5.53;;;2.30;1.00;;;;;;5114156;28;20548;-74
2022/01/12 09:33:25;;;;;;;8.48;6.35;;;2.40;1.00;;;;;;5114581;27;20074;-74
2022/01/12 09:35:53;;;;;;;15.50;6.75;;;2.40;1.00;;;;;;5114321;28;20051;-74
2022/01/12 09:38:20;;;;;;;12.38;7.97;;;2.50;1.00;;;;;;5114088;28;20502;-74
2022/01/12 09:40:46;;;;;;;9.25;7.28;;;2.40;1.00;;;;;;5117111;27;20039;-74
2022/01/12 09:43:13;;;;;;;11.70;8.75;;;2.40;1.00;;;;;;5135314;27;20042;-74
2022/01/12 09:45:43;;;;;;;11.48;8.05;;;2.40;1.00;;;;;;5135959;28;20103;-74
2022/01/12 09:48:10;;;;;;;18.17;9.03;;;2.30;1.00;;;;;;5131072;27;20056;-74
2022/01/12 09:50:36;;;;;;;10.13;7.35;;;2.30;1.00;;;;;;5116814;28;20038;-74
2022/01/12 09:53:03;;;;;;;12.30;8.75;;;2.40;1.00;;;;;;5125720;28;20035;-74
2022/01/12 09:55:28;;;;;;;14.45;8.75;;;2.40;1.00;;;;;;5114637;28;20035;-74
2022/01/12 09:57:54;;;;;;;16.08;8.05;;;2.40;1.00;;;;;;5114586;28;20031;-74
2022/01/12 10:00:26;;;;;;;9.70;7.80;;;2.40;1.00;;;;;;5115980;28;20068;-73
2022/01/12 10:02:52;;;;;;;11.75;7.65;;;2.40;1.00;;;;;;5120362;27;20031;-73
2022/01/12 10:05:18;;;;;;;14.73;8.60;;;2.40;1.00;;;;;;5129673;28;20023;-73
2022/01/12 10:07:44;;;;;;;9.65;7.35;;;2.40;1.00;;;;;;5120512;27;20023;-73
2022/01/12 10:10:15;;;;;;;11.48;7.57;;;2.40;1.00;;;;;;5127245;28;20035;-73
2022/01/12 10:12:54;;;;;;;;;;;2.40;1.00;;;;;;5135870;28;20127;-74
2022/01/12 10:15:24;;;;;;;12.07;7.80;;;2.40;1.00;;;;;;5120068;28;19986;-73
2022/01/12 10:17:50;;;;;;;;;;;2.40;1.00;;;;;;5133235;28;20043;-73
2022/01/12 10:20:19;;;;;;;12.18;7.95;;;2.40;1.00;;;;;;5114584;28;20399;-73
2022/01/12 10:23:05;;;;;;;12.77;7.65;;;2.50;1.00;;;;;;5120239;28;20059;-75
2022/01/12 10:25:31;;;;;;;11.63;8.23;;;2.50;1.00;;;;;;5121535;28;20115;-74
2022/01/12 10:27:58;;;;;;;11.30;7.70;;;2.40;1.00;;;;;;5134248;28;20135;-74
2022/01/12 10:30:29;;;;;;;12.80;8.60;;;2.40;1.00;;;;;;5135787;27;20122;-74
2022/01/12 10:33:04;;;;;;;12.68;8.00;;;2.40;1.00;;;;;;5137908;27;20035;-74
2022/01/12 10:35:32;;;;;;;11.43;7.30;;;2.40;1.00;;;;;;5139319;27;20031;-75
2022/01/12 10:38:11;;;;;;;13.02;8.10;;;2.50;1.00;;;;;;5138873;27;20067;-74
2022/01/12 10:40:53;;;;;;;11.05;7.82;;;2.40;1.00;;;;;;5138806;27;20358;-75
2022/01/12 10:43:26;;;;;;;9.32;7.15;;;2.50;1.00;;;;;;5139042;27;20043;-74
2022/01/12 10:45:53;;;;;;;11.75;7.53;;;2.50;1.00;;;;;;5139043;27;20053;-75
2022/01/12 10:48:19;;;;;;;11.35;7.13;;;2.50;1.00;;;;;;5138950;27;20053;-75
2022/01/12 10:50:59;;;;;;;11.80;7.60;;;2.50;1.00;;;;;;5138516;27;20027;-75
2022/01/12 10:53:33;;;;;;;10.57;6.60;;;2.60;1.00;;;;;;5139186;27;20108;-75
2022/01/12 10:56:15;;;;;;;11.50;7.15;;;2.60;1.00;;;;;;5138591;27;20035;-75
2022/01/12 10:58:43;;;;;;;10.65;7.53;;;2.70;1.00;;;;;;5139025;27;20469;-75
2022/01/12 11:01:10;;;;;;;9.95;7.18;;;2.70;1.00;;;;;;5139401;27;20100;-75
2022/01/12 11:03:37;;;;;;;11.00;7.47;;;2.70;1.00;;;;;;5138423;27;20098;-75
2022/01/12 11:06:05;;;;;;;10.25;8.05;;;2.70;1.00;;;;;;5138623;27;20061;-75
2022/01/12 11:08:32;;;;;;;11.57;7.75;;;2.80;1.00;;;;;;5138473;27;20038;-75
2022/01/12 11:10:59;;;;;;;11.00;7.90;;;2.80;1.00;;;;;;5138596;27;20049;-74
2022/01/12 11:13:26;;;;;;;13.65;8.18;;;2.80;1.00;;;;;;5138670;27;20042;-74
2022/01/12 11:15:54;;;;;;;12.80;8.50;;;2.90;1.00;;;;;;5138256;27;20038;-74
2022/01/12 11:18:22;;;;;;;10.80;8.18;;;2.90;1.00;;;;;;5137938;27;20035;-74
2022/01/12 11:20:51;;;;;;;11.48;7.53;;;3.00;1.00;;;;;;5137857;27;20164;-75
2022/01/12 11:23:19;;;;;;;13.60;8.98;;;2.90;1.00;;;;;;5120153;27;20034;-73
2022/01/12 11:25:50;;;;;;;13.50;7.78;;;2.90;1.00;;;;;;5137735;27;20038;-74
2022/01/12 11:28:26;;;;;;;12.20;8.27;;;2.90;1.00;;;;;;5137976;27;20027;-74
2022/01/12 11:30:53;;;;;;;12.50;8.88;;;2.90;1.00;;;;;;5137641;27;20108;-74
2022/01/12 11:33:29;;;;;;;12.45;8.10;;;2.90;1.00;;;;;;5137511;27;20031;-74
2022/01/12 11:35:55;;;;;;;11.93;8.40;;;2.90;1.00;;;;;;5137940;27;20035;-74
2022/01/12 11:38:24;;;;;;;14.02;8.82;;;3.00;1.00;;;;;;5136924;27;20035;-74
2022/01/12 11:40:52;;;;;;;12.75;8.30;;;3.00;1.00;;;;;;5138021;27;20035;-74
2022/01/12 11:43:27;;;;;;;11.90;8.00;;;3.00;1.00;;;;;;5136232;27;20037;-74
2022/01/12 11:46:06;;;;;;;11.18;8.20;;;3.00;1.00;;;;;;5137878;27;20042;-74
2022/01/12 11:48:36;;;;;;;12.27;8.90;;;3.00;1.00;;;;;;5137389;27;20066;-74
2022/01/12 11:51:02;;;;;;;13.13;8.68;;;3.00;1.00;;;;;;5137242;27;20031;-73
2022/01/12 11:53:31;;;;;;;10.65;8.05;;;3.00;1.00;;;;;;5137475;27;20035;-73
2022/01/12 11:56:10;;;;;;;12.52;7.78;;;3.10;1.00;;;;;;5137066;27;20098;-74
2022/01/12 11:58:51;;;;;;;12.30;8.75;;;3.10;1.00;;;;;;5136910;27;20512;-73
2022/01/12 12:01:17;;;;;;;11.57;7.95;;;3.10;1.00;;;;;;5137320;27;20077;-74
2022/01/12 12:03:59;;;;;;;13.18;9.02;;;3.10;1.00;;;;;;5136843;27;20058;-75
2022/01/12 12:06:24;;;;;;;16.15;10.32;;;3.10;1.00;;;;;;5136668;27;20346;-75
2022/01/12 12:09:00;;;;;;;12.48;7.90;;;3.10;1.00;;;;;;5137820;27;20095;-77
2022/01/12 12:11:31;;;;;;;11.75;8.15;;;3.10;1.00;;;;;;5137050;27;20051;-75
2022/01/12 12:14:05;;;;;;;13.65;7.57;;;3.10;1.00;;;;;;5127043;27;20034;-75
2022/01/12 12:16:32;;;;;;;11.57;7.93;;;3.10;1.00;;;;;;5098437;28;20379;-74
2022/01/12 12:19:04;;;;;;;11.93;8.63;;;3.20;1.00;;;;;;5116156;28;20043;-73
2022/01/12 12:21:32;;;;;;;13.68;8.23;;;3.20;1.00;;;;;;5116685;28;20070;-74
2022/01/12 12:24:12;;;;;;;13.40;8.18;;;3.10;1.00;;;;;;5116275;28;20027;-75
2022/01/12 12:26:48;;;;;;;12.50;7.47;;;3.10;1.00;;;;;;5116849;28;20031;-74
2022/01/12 12:29:15;;;;;;;12.25;8.43;;;3.10;1.00;;;;;;5116578;28;20451;-74
2022/01/12 12:31:46;;;;;;;15.02;8.73;;;3.10;1.00;;;;;;5116055;28;20118;-74
2022/01/12 12:34:12;;;;;;;12.68;8.07;;;3.10;1.00;;;;;;5116628;28;20043;-75
2022/01/12 12:36:38;;;;;;;14.90;8.68;;;3.10;1.00;;;;;;5115741;28;20362;-74
2022/01/12 12:39:12;;;;;;;10.98;7.85;;;3.10;1.00;;;;;;5114462;28;20042;-74
2022/01/12 12:41:43;;;;;;;11.70;7.85;;;3.10;1.00;;;;;;5115190;28;20067;-74
2022/01/12 12:44:23;;;;;;;12.60;8.40;;;3.10;1.00;;;;;;5116642;28;20040;-74
2022/01/12 12:46:51;;;;;;;14.52;8.25;;;3.20;1.00;;;;;;5115901;28;20028;-74
2022/01/12 12:49:17;;;;;;;12.63;8.77;;;3.20;1.00;;;;;;5115452;28;20382;-74
2022/01/12 12:51:43;;;;;;;12.93;8.38;;;3.30;1.00;;;;;;5116048;28;20024;-74
2022/01/12 12:54:12;;;;;;;12.98;7.78;;;3.20;1.00;;;;;;5115620;28;20036;-74
2022/01/12 12:56:48;;;;;;;10.80;8.15;;;3.20;1.00;;;;;;5123426;27;20035;-74
2022/01/12 12:59:14;;;;;;;12.60;8.15;;;3.20;1.00;;;;;;5136181;27;20087;-74
2022/01/12 13:01:40;;;;;;;11.93;8.05;;;3.30;1.00;;;;;;5136230;27;20056;-73
2022/01/12 13:04:05;;;;;;;11.02;7.40;;;3.30;1.00;;;;;;5135837;27;20043;-73
2022/01/12 13:06:34;;;;;;;12.55;8.80;;;3.20;1.00;;;;;;5135953;27;20547;-74
2022/01/12 13:09:05;;;;;;;13.38;7.68;;;3.20;1.00;;;;;;5135892;27;20181;-74
2022/01/12 13:11:49;;;;;;;15.23;8.43;;;3.30;1.00;;;;;;5135440;27;20036;-74
2022/01/12 13:14:16;;;;;;;9.45;6.70;;;3.30;1.00;;;;;;5136019;27;20027;-74
2022/01/12 13:16:49;;;;;;;11.07;7.40;;;3.30;1.00;;;;;;5134988;27;20046;-75
2022/01/12 13:19:22;;;;;;;13.00;7.45;;;3.40;1.00;;;;;;5135140;27;20027;-74
2022/01/12 13:21:49;;;;;;;10.98;7.90;;;3.40;1.00;;;;;;5135195;27;20047;-74
2022/01/12 13:24:15;;;;;;;13.07;7.45;;;3.30;1.00;;;;;;5135283;27;20084;-75
2022/01/12 13:26:41;;;;;;;9.20;6.80;;;3.30;1.00;;;;;;5135542;27;20038;-75
2022/01/12 13:29:11;;;;;;;11.18;6.57;;;3.50;1.00;;;;;;5135128;27;20035;-74
2022/01/12 13:31:38;;;;;;;11.23;6.53;;;3.50;1.00;;;;;;5131359;27;20039;-74
2022/01/12 13:34:05;;;;;;;8.75;5.72;;;3.50;1.00;;;;;;5134876;27;20054;-75
2022/01/12 13:36:33;;;;;;;12.82;6.50;;;3.60;1.00;;;;;;5135317;27;20110;-75
2022/01/12 13:39:07;;;;;;;10.18;6.82;;;3.70;1.00;;;;;;5134208;27;20058;-73
2022/01/12 13:41:36;;;;;;;13.73;7.00;;;3.70;1.00;;;;;;5134720;27;20075;-73
2022/01/12 13:44:10;;;;;;;12.05;7.00;;;3.80;1.00;;;;;;5134671;28;20082;-73
2022/01/12 13:46:38;;;;;;;10.00;6.95;;;3.80;1.00;;;;;;5135472;28;20049;-73
2022/01/12 13:49:21;;;;;;;10.55;5.97;;;3.90;1.00;;;;;;5134618;28;20497;-74
2022/01/12 13:52:02;;;;;;;10.32;6.28;;;3.80;1.00;;;;;;5134445;28;20031;-74
2022/01/12 13:54:40;;;;;;;7.00;5.25;;;3.80;1.00;;;;;;5135383;28;20038;-74
2022/01/12 13:57:09;;;;;;;7.97;5.32;;;3.80;1.00;;;;;;5135087;28;20035;-73
2022/01/12 13:59:52;;;;;;;6.47;4.97;;;3.90;1.00;;;;;;5134344;28;20363;-73
2022/01/12 14:02:20;;;;;;;6.50;4.57;;;3.90;1.00;;;;;;5134774;28;20039;-73
2022/01/12 14:04:58;;;;;;;7.75;5.32;;;3.90;1.00;;;;;;5135206;27;20031;-73
2022/01/12 14:07:26;;;;;;;6.65;4.55;;;3.90;1.00;;;;;;5138760;27;20067;-73
2022/01/12 14:09:54;;;;;;;7.85;5.03;;;3.90;1.00;;;;;;5139144;27;20039;-73
2022/01/12 14:12:20;;;;;;;6.57;5.13;;;3.80;1.00;;;;;;5139318;27;20051;-75
2022/01/12 14:14:47;;;;;;;8.55;4.72;;;3.70;1.00;;;;;;5138910;27;20482;-75
2022/01/12 14:17:43;;;;;;;7.00;4.80;;;3.70;1.00;;;;;;5136395;27;20034;-75
2022/01/12 14:20:12;;;;;;;10.77;5.05;;;3.80;1.00;;;;;;5139069;27;20066;-75
2022/01/12 14:22:49;;;;;;;8.77;5.32;;;3.80;1.00;;;;;;5138285;27;20104;-75
2022/01/12 14:25:16;;;;;;;7.80;5.55;;;3.80;1.00;;;;;;5139210;27;20477;-74
2022/01/12 14:27:47;;;;;;;6.95;5.00;;;3.80;1.00;;;;;;5138585;27;20038;-78
2022/01/12 14:30:16;;;;;;;8.95;5.43;;;3.80;1.00;;;;;;5138375;27;20039;-76
2022/01/12 14:32:43;;;;;;;9.60;5.47;;;3.90;1.00;;;;;;5136459;27;20513;-75
2022/01/12 14:35:12;;;;;;;8.10;5.32;;;3.90;1.00;;;;;;5138735;27;20041;-75